sensor_id;sensor_type;location;lat;lon;timestamp;P1;durP1;ratioP1;P2;durP2;ratioP2
43841;SDS011;29495;49.970;20.842;2023-11-19T00:02:08;15.25;;;9.35;;
43841;SDS011;29495;49.970;20.842;2023-11-19T00:04:38;15.18;;;9.18;;
43841;SDS011;29495;49.970;20.842;2023-11-19T00:07:07;17.00;;;9.77;;
43841;SDS011;29495;49.970;20.842;2023-11-19T00:09:35;18.35;;;9.60;;
43841;SDS011;29495;49.970;20.842;2023-11-19T00:12:03;15.02;;;8.48;;
43841;SDS011;29495;49.970;20.842;2023-11-19T00:14:30;18.67;;;10.43;;
43841;SDS011;29495;49.970;20.842;2023-11-19T00:16:56;17.15;;;9.57;;
43841;SDS011;29495;49.970;20.842;2023-11-19T00:19:22;19.55;;;10.02;;
43841;SDS011;29495;49.970;20.842;2023-11-19T00:21:48;18.35;;;10.38;;
43841;SDS011;29495;49.970;20.842;2023-11-19T00:24:14;17.88;;;10.82;;
43841;SDS011;29495;49.970;20.842;2023-11-19T00:26:42;17.95;;;10.88;;
43841;SDS011;29495;49.970;20.842;2023-11-19T00:29:08;19.73;;;11.02;;
43841;SDS011;29495;49.970;20.842;2023-11-19T00:31:34;16.13;;;10.02;;
43841;SDS011;29495;49.970;20.842;2023-11-19T00:34:00;17.98;;;10.13;;
43841;SDS011;29495;49.970;20.842;2023-11-19T00:36:27;15.15;;;9.75;;
43841;SDS011;29495;49.970;20.842;2023-11-19T00:38:53;17.63;;;10.18;;
43841;SDS011;29495;49.970;20.842;2023-11-19T00:41:20;15.25;;;9.82;;
43841;SDS011;29495;49.970;20.842;2023-11-19T00:43:46;17.52;;;9.63;;
43841;SDS011;29495;49.970;20.842;2023-11-19T00:46:12;18.33;;;10.00;;
43841;SDS011;29495;49.970;20.842;2023-11-19T00:48:39;15.07;;;9.70;;
43841;SDS011;29495;49.970;20.842;2023-11-19T00:51:05;16.67;;;9.32;;
43841;SDS011;29495;49.970;20.842;2023-11-19T00:53:31;15.75;;;9.13;;
43841;SDS011;29495;49.970;20.842;2023-11-19T00:56:00;16.87;;;9.23;;
43841;SDS011;29495;49.970;20.842;2023-11-19T01:59:04;18.48;;;10.20;;
43841;SDS011;29495;49.970;20.842;2023-11-19T02:01:30;14.60;;;8.40;;
43841;SDS011;29495;49.970;20.842;2023-11-19T02:03:57;15.90;;;8.90;;
43841;SDS011;29495;49.970;20.842;2023-11-19T02:06:24;15.50;;;8.90;;
43841;SDS011;29495;49.970;20.842;2023-11-19T02:08:51;14.70;;;8.70;;
43841;SDS011;29495;49.970;20.842;2023-11-19T02:11:17;16.30;;;9.70;;
43841;SDS011;29495;49.970;20.842;2023-11-19T02:13:43;16.42;;;9.75;;
43841;SDS011;29495;49.970;20.842;2023-11-19T02:16:10;13.85;;;8.43;;
43841;SDS011;29495;49.970;20.842;2023-11-19T02:18:36;13.68;;;8.40;;
43841;SDS011;29495;49.970;20.842;2023-11-19T02:21:02;15.05;;;8.98;;
43841;SDS011;29495;49.970;20.842;2023-11-19T02:23:28;18.05;;;9.80;;
43841;SDS011;29495;49.970;20.842;2023-11-19T02:26:00;17.05;;;10.32;;
43841;SDS011;29495;49.970;20.842;2023-11-19T02:28:27;14.55;;;9.60;;
43841;SDS011;29495;49.970;20.842;2023-11-19T02:30:53;16.88;;;10.35;;
43841;SDS011;29495;49.970;20.842;2023-11-19T02:33:19;16.10;;;9.00;;
43841;SDS011;29495;49.970;20.842;2023-11-19T02:35:45;18.80;;;10.20;;
43841;SDS011;29495;49.970;20.842;2023-11-19T02:38:11;15.55;;;9.07;;
43841;SDS011;29495;49.970;20.842;2023-11-19T02:40:39;17.23;;;10.38;;
43841;SDS011;29495;49.970;20.842;2023-11-19T02:43:05;18.00;;;9.95;;
43841;SDS011;29495;49.970;20.842;2023-11-19T02:45:31;16.73;;;9.98;;
43841;SDS011;29495;49.970;20.842;2023-11-19T02:47:57;17.70;;;10.10;;
43841;SDS011;29495;49.970;20.842;2023-11-19T02:50:27;17.65;;;10.30;;
43841;SDS011;29495;49.970;20.842;2023-11-19T02:52:55;22.60;;;10.88;;
43841;SDS011;29495;49.970;20.842;2023-11-19T02:55:21;18.40;;;10.85;;
43841;SDS011;29495;49.970;20.842;2023-11-19T02:57:49;17.50;;;10.23;;
43841;SDS011;29495;49.970;20.842;2023-11-19T03:00:34;16.30;;;9.38;;
43841;SDS011;29495;49.970;20.842;2023-11-19T03:03:17;15.70;;;9.27;;
43841;SDS011;29495;49.970;20.842;2023-11-19T04:12:10;17.55;;;10.15;;
43841;SDS011;29495;49.970;20.842;2023-11-19T04:14:37;14.88;;;9.02;;
43841;SDS011;29495;49.970;20.842;2023-11-19T04:17:03;15.75;;;9.55;;
43841;SDS011;29495;49.970;20.842;2023-11-19T04:19:29;18.50;;;10.32;;
43841;SDS011;29495;49.970;20.842;2023-11-19T04:21:58;18.42;;;11.35;;
43841;SDS011;29495;49.970;20.842;2023-11-19T04:24:24;19.63;;;11.77;;
43841;SDS011;29495;49.970;20.842;2023-11-19T04:26:50;19.17;;;10.18;;
43841;SDS011;29495;49.970;20.842;2023-11-19T04:29:16;17.38;;;10.27;;
43841;SDS011;29495;49.970;20.842;2023-11-19T04:31:45;15.98;;;10.25;;
43841;SDS011;29495;49.970;20.842;2023-11-19T04:34:11;20.15;;;11.00;;
43841;SDS011;29495;49.970;20.842;2023-11-19T04:36:38;15.85;;;9.68;;
43841;SDS011;29495;49.970;20.842;2023-11-19T04:39:04;15.93;;;8.88;;
43841;SDS011;29495;49.970;20.842;2023-11-19T04:41:45;14.93;;;9.57;;
43841;SDS011;29495;49.970;20.842;2023-11-19T04:44:13;16.10;;;9.43;;
43841;SDS011;29495;49.970;20.842;2023-11-19T04:46:39;15.95;;;9.25;;
43841;SDS011;29495;49.970;20.842;2023-11-19T04:49:05;14.20;;;8.10;;
43841;SDS011;29495;49.970;20.842;2023-11-19T04:51:30;16.02;;;8.90;;
43841;SDS011;29495;49.970;20.842;2023-11-19T04:53:56;15.52;;;9.30;;
43841;SDS011;29495;49.970;20.842;2023-11-19T04:56:22;16.63;;;10.07;;
43841;SDS011;29495;49.970;20.842;2023-11-19T04:58:49;16.20;;;9.93;;
43841;SDS011;29495;49.970;20.842;2023-11-19T05:01:15;18.88;;;11.20;;
43841;SDS011;29495;49.970;20.842;2023-11-19T05:03:51;18.83;;;11.02;;
43841;SDS011;29495;49.970;20.842;2023-11-19T05:06:27;17.88;;;10.10;;
43841;SDS011;29495;49.970;20.842;2023-11-19T05:08:55;18.45;;;10.13;;
43841;SDS011;29495;49.970;20.842;2023-11-19T05:11:22;17.98;;;10.13;;
43841;SDS011;29495;49.970;20.842;2023-11-19T05:13:48;18.75;;;10.10;;
43841;SDS011;29495;49.970;20.842;2023-11-19T05:16:15;16.27;;;9.13;;
43841;SDS011;29495;49.970;20.842;2023-11-19T05:18:43;16.42;;;10.23;;
43841;SDS011;29495;49.970;20.842;2023-11-19T05:24:45;12.75;;;8.27;;
43841;SDS011;29495;49.970;20.842;2023-11-19T05:27:11;13.73;;;7.85;;
43841;SDS011;29495;49.970;20.842;2023-11-19T05:29:38;13.52;;;7.30;;
43841;SDS011;29495;49.970;20.842;2023-11-19T05:32:05;11.95;;;7.53;;
43841;SDS011;29495;49.970;20.842;2023-11-19T05:34:31;10.25;;;7.25;;
43841;SDS011;29495;49.970;20.842;2023-11-19T05:36:57;10.23;;;6.30;;
43841;SDS011;29495;49.970;20.842;2023-11-19T05:39:23;12.73;;;8.15;;
43841;SDS011;29495;49.970;20.842;2023-11-19T05:41:50;13.23;;;7.78;;
43841;SDS011;29495;49.970;20.842;2023-11-19T05:44:16;11.63;;;7.38;;
43841;SDS011;29495;49.970;20.842;2023-11-19T05:46:43;12.65;;;8.32;;
43841;SDS011;29495;49.970;20.842;2023-11-19T05:49:10;12.27;;;6.90;;
43841;SDS011;29495;49.970;20.842;2023-11-19T05:51:37;13.45;;;7.30;;
43841;SDS011;29495;49.970;20.842;2023-11-19T05:54:06;12.75;;;7.85;;
43841;SDS011;29495;49.970;20.842;2023-11-19T05:56:33;13.05;;;7.57;;
43841;SDS011;29495;49.970;20.842;2023-11-19T05:58:59;11.88;;;7.03;;
43841;SDS011;29495;49.970;20.842;2023-11-19T06:01:35;13.00;;;7.32;;
43841;SDS011;29495;49.970;20.842;2023-11-19T06:06:28;11.65;;;7.05;;
43841;SDS011;29495;49.970;20.842;2023-11-19T06:08:54;12.55;;;7.28;;
43841;SDS011;29495;49.970;20.842;2023-11-19T06:11:20;12.93;;;8.13;;
43841;SDS011;29495;49.970;20.842;2023-11-19T06:13:46;15.75;;;9.57;;
43841;SDS011;29495;49.970;20.842;2023-11-19T06:16:16;15.88;;;9.35;;
43841;SDS011;29495;49.970;20.842;2023-11-19T06:18:42;22.08;;;12.52;;
43841;SDS011;29495;49.970;20.842;2023-11-19T06:21:09;20.95;;;12.52;;
43841;SDS011;29495;49.970;20.842;2023-11-19T06:23:36;16.70;;;10.43;;
43841;SDS011;29495;49.970;20.842;2023-11-19T06:26:02;16.50;;;9.80;;
43841;SDS011;29495;49.970;20.842;2023-11-19T06:28:28;14.75;;;9.10;;
43841;SDS011;29495;49.970;20.842;2023-11-19T06:30:54;13.02;;;7.93;;
43841;SDS011;29495;49.970;20.842;2023-11-19T06:33:21;11.68;;;7.95;;
43841;SDS011;29495;49.970;20.842;2023-11-19T06:35:47;12.27;;;7.28;;
43841;SDS011;29495;49.970;20.842;2023-11-19T06:38:14;13.48;;;7.57;;
43841;SDS011;29495;49.970;20.842;2023-11-19T06:40:40;11.68;;;6.85;;
43841;SDS011;29495;49.970;20.842;2023-11-19T06:43:12;12.65;;;7.88;;
43841;SDS011;29495;49.970;20.842;2023-11-19T06:45:59;19.67;;;10.55;;
43841;SDS011;29495;49.970;20.842;2023-11-19T06:48:25;20.52;;;10.10;;
43841;SDS011;29495;49.970;20.842;2023-11-19T06:50:51;15.70;;;9.23;;
43841;SDS011;29495;49.970;20.842;2023-11-19T06:53:17;15.30;;;8.98;;
43841;SDS011;29495;49.970;20.842;2023-11-19T06:55:43;12.93;;;7.57;;
43841;SDS011;29495;49.970;20.842;2023-11-19T06:58:08;13.20;;;8.27;;
43841;SDS011;29495;49.970;20.842;2023-11-19T07:00:34;13.05;;;8.38;;
43841;SDS011;29495;49.970;20.842;2023-11-19T07:03:01;13.77;;;7.75;;
43841;SDS011;29495;49.970;20.842;2023-11-19T07:05:27;12.73;;;7.85;;
43841;SDS011;29495;49.970;20.842;2023-11-19T07:07:53;12.55;;;7.60;;
43841;SDS011;29495;49.970;20.842;2023-11-19T07:10:20;14.50;;;7.32;;
43841;SDS011;29495;49.970;20.842;2023-11-19T07:12:46;13.90;;;7.93;;
43841;SDS011;29495;49.970;20.842;2023-11-19T07:15:12;10.52;;;6.25;;
43841;SDS011;29495;49.970;20.842;2023-11-19T07:17:38;11.45;;;7.47;;
43841;SDS011;29495;49.970;20.842;2023-11-19T07:20:05;12.07;;;7.75;;
43841;SDS011;29495;49.970;20.842;2023-11-19T07:22:32;12.25;;;7.32;;
43841;SDS011;29495;49.970;20.842;2023-11-19T07:24:58;12.98;;;7.97;;
43841;SDS011;29495;49.970;20.842;2023-11-19T07:27:24;14.15;;;8.43;;
43841;SDS011;29495;49.970;20.842;2023-11-19T07:29:50;14.02;;;8.18;;
43841;SDS011;29495;49.970;20.842;2023-11-19T07:32:16;13.70;;;8.65;;
43841;SDS011;29495;49.970;20.842;2023-11-19T07:34:43;15.55;;;8.68;;
43841;SDS011;29495;49.970;20.842;2023-11-19T07:37:09;16.48;;;9.30;;
43841;SDS011;29495;49.970;20.842;2023-11-19T07:39:35;15.48;;;9.25;;
43841;SDS011;29495;49.970;20.842;2023-11-19T07:42:03;14.95;;;8.93;;
43841;SDS011;29495;49.970;20.842;2023-11-19T07:44:29;18.17;;;9.43;;
43841;SDS011;29495;49.970;20.842;2023-11-19T07:46:55;19.60;;;9.48;;
43841;SDS011;29495;49.970;20.842;2023-11-19T07:49:21;15.25;;;8.52;;
43841;SDS011;29495;49.970;20.842;2023-11-19T07:51:47;14.43;;;8.70;;
43841;SDS011;29495;49.970;20.842;2023-11-19T07:54:13;15.80;;;9.43;;
43841;SDS011;29495;49.970;20.842;2023-11-19T07:56:39;13.07;;;8.45;;
43841;SDS011;29495;49.970;20.842;2023-11-19T07:59:05;13.73;;;8.85;;
43841;SDS011;29495;49.970;20.842;2023-11-19T08:01:31;11.90;;;7.70;;
43841;SDS011;29495;49.970;20.842;2023-11-19T08:03:58;13.88;;;7.78;;
43841;SDS011;29495;49.970;20.842;2023-11-19T08:06:24;17.20;;;8.65;;
43841;SDS011;29495;49.970;20.842;2023-11-19T08:08:50;13.40;;;8.15;;
43841;SDS011;29495;49.970;20.842;2023-11-19T08:11:17;13.20;;;8.75;;
43841;SDS011;29495;49.970;20.842;2023-11-19T08:13:45;13.02;;;8.00;;
43841;SDS011;29495;49.970;20.842;2023-11-19T08:16:11;11.68;;;7.82;;
43841;SDS011;29495;49.970;20.842;2023-11-19T08:18:37;14.25;;;7.97;;
43841;SDS011;29495;49.970;20.842;2023-11-19T08:21:03;12.23;;;7.88;;
43841;SDS011;29495;49.970;20.842;2023-11-19T08:23:30;13.05;;;7.70;;
43841;SDS011;29495;49.970;20.842;2023-11-19T08:25:56;14.98;;;8.45;;
43841;SDS011;29495;49.970;20.842;2023-11-19T08:28:22;11.77;;;7.00;;
43841;SDS011;29495;49.970;20.842;2023-11-19T08:30:48;15.73;;;8.55;;
43841;SDS011;29495;49.970;20.842;2023-11-19T08:33:32;12.95;;;8.35;;
43841;SDS011;29495;49.970;20.842;2023-11-19T08:35:59;14.60;;;9.00;;
43841;SDS011;29495;49.970;20.842;2023-11-19T08:38:29;10.88;;;6.90;;
43841;SDS011;29495;49.970;20.842;2023-11-19T08:43:25;9.43;;;6.50;;
43841;SDS011;29495;49.970;20.842;2023-11-19T08:45:52;10.27;;;7.07;;
43841;SDS011;29495;49.970;20.842;2023-11-19T08:48:18;11.93;;;7.38;;
43841;SDS011;29495;49.970;20.842;2023-11-19T08:50:44;11.50;;;7.05;;
43841;SDS011;29495;49.970;20.842;2023-11-19T08:53:10;12.77;;;7.32;;
43841;SDS011;29495;49.970;20.842;2023-11-19T08:55:36;12.20;;;7.88;;
43841;SDS011;29495;49.970;20.842;2023-11-19T08:58:02;12.70;;;7.68;;
43841;SDS011;29495;49.970;20.842;2023-11-19T09:00:28;17.38;;;9.15;;
43841;SDS011;29495;49.970;20.842;2023-11-19T09:02:55;16.10;;;9.27;;
43841;SDS011;29495;49.970;20.842;2023-11-19T09:05:21;16.25;;;9.50;;
43841;SDS011;29495;49.970;20.842;2023-11-19T09:07:47;13.85;;;8.00;;
43841;SDS011;29495;49.970;20.842;2023-11-19T09:10:15;14.95;;;8.50;;
43841;SDS011;29495;49.970;20.842;2023-11-19T09:12:41;14.07;;;7.93;;
43841;SDS011;29495;49.970;20.842;2023-11-19T09:17:59;15.57;;;8.05;;
43841;SDS011;29495;49.970;20.842;2023-11-19T09:20:25;32.25;;;13.93;;
43841;SDS011;29495;49.970;20.842;2023-11-19T09:22:51;27.70;;;13.27;;
43841;SDS011;29495;49.970;20.842;2023-11-19T09:25:17;19.48;;;10.48;;
43841;SDS011;29495;49.970;20.842;2023-11-19T09:27:43;16.88;;;8.75;;
43841;SDS011;29495;49.970;20.842;2023-11-19T09:30:09;10.68;;;6.82;;
43841;SDS011;29495;49.970;20.842;2023-11-19T09:32:36;16.42;;;9.18;;
43841;SDS011;29495;49.970;20.842;2023-11-19T09:35:03;19.55;;;9.63;;
43841;SDS011;29495;49.970;20.842;2023-11-19T09:37:29;15.95;;;9.02;;
43841;SDS011;29495;49.970;20.842;2023-11-19T09:39:55;14.88;;;8.25;;
43841;SDS011;29495;49.970;20.842;2023-11-19T09:42:22;15.88;;;8.77;;
43841;SDS011;29495;49.970;20.842;2023-11-19T09:44:49;14.60;;;8.02;;
43841;SDS011;29495;49.970;20.842;2023-11-19T09:47:16;14.75;;;8.25;;
43841;SDS011;29495;49.970;20.842;2023-11-19T09:49:44;12.35;;;7.82;;
43841;SDS011;29495;49.970;20.842;2023-11-19T09:52:10;13.27;;;8.10;;
43841;SDS011;29495;49.970;20.842;2023-11-19T09:54:36;12.82;;;7.25;;
43841;SDS011;29495;49.970;20.842;2023-11-19T09:57:02;12.65;;;7.70;;
43841;SDS011;29495;49.970;20.842;2023-11-19T09:59:33;9.98;;;7.50;;
43841;SDS011;29495;49.970;20.842;2023-11-19T10:04:46;11.52;;;7.10;;
43841;SDS011;29495;49.970;20.842;2023-11-19T10:07:13;11.25;;;7.57;;
43841;SDS011;29495;49.970;20.842;2023-11-19T10:09:39;10.52;;;6.97;;
43841;SDS011;29495;49.970;20.842;2023-11-19T10:12:05;12.75;;;8.07;;
43841;SDS011;29495;49.970;20.842;2023-11-19T10:14:31;11.35;;;7.47;;
43841;SDS011;29495;49.970;20.842;2023-11-19T10:17:33;13.13;;;7.57;;
43841;SDS011;29495;49.970;20.842;2023-11-19T10:20:00;12.93;;;7.55;;
43841;SDS011;29495;49.970;20.842;2023-11-19T10:22:27;11.98;;;6.68;;
43841;SDS011;29495;49.970;20.842;2023-11-19T10:24:57;12.63;;;6.95;;
43841;SDS011;29495;49.970;20.842;2023-11-19T10:27:55;12.15;;;7.53;;
43841;SDS011;29495;49.970;20.842;2023-11-19T10:33:06;12.38;;;6.93;;
43841;SDS011;29495;49.970;20.842;2023-11-19T10:35:34;13.57;;;7.68;;
43841;SDS011;29495;49.970;20.842;2023-11-19T10:38:20;12.25;;;7.55;;
43841;SDS011;29495;49.970;20.842;2023-11-19T10:40:48;13.45;;;8.32;;
43841;SDS011;29495;49.970;20.842;2023-11-19T10:43:16;13.23;;;9.00;;
43841;SDS011;29495;49.970;20.842;2023-11-19T10:45:43;14.23;;;8.77;;
43841;SDS011;29495;49.970;20.842;2023-11-19T10:48:09;17.55;;;9.20;;
43841;SDS011;29495;49.970;20.842;2023-11-19T10:50:36;12.77;;;8.27;;
43841;SDS011;29495;49.970;20.842;2023-11-19T10:53:03;12.73;;;8.10;;
43841;SDS011;29495;49.970;20.842;2023-11-19T10:55:31;14.48;;;8.00;;
43841;SDS011;29495;49.970;20.842;2023-11-19T10:58:04;15.68;;;8.63;;
43841;SDS011;29495;49.970;20.842;2023-11-19T11:03:26;16.20;;;10.02;;
43841;SDS011;29495;49.970;20.842;2023-11-19T11:06:05;15.88;;;9.02;;
43841;SDS011;29495;49.970;20.842;2023-11-19T11:08:32;14.02;;;8.77;;
43841;SDS011;29495;49.970;20.842;2023-11-19T11:11:03;13.90;;;8.52;;
43841;SDS011;29495;49.970;20.842;2023-11-19T11:13:30;16.08;;;10.00;;
43841;SDS011;29495;49.970;20.842;2023-11-19T11:15:59;15.40;;;9.10;;
43841;SDS011;29495;49.970;20.842;2023-11-19T11:18:26;14.68;;;9.15;;
43841;SDS011;29495;49.970;20.842;2023-11-19T11:38:56;17.10;;;9.30;;
43841;SDS011;29495;49.970;20.842;2023-11-19T11:41:33;22.50;;;11.23;;
43841;SDS011;29495;49.970;20.842;2023-11-19T11:43:59;23.05;;;11.48;;
43841;SDS011;29495;49.970;20.842;2023-11-19T11:49:05;18.58;;;9.80;;
43841;SDS011;29495;49.970;20.842;2023-11-19T11:54:11;15.90;;;9.68;;
43841;SDS011;29495;49.970;20.842;2023-11-19T11:57:10;15.25;;;8.20;;
43841;SDS011;29495;49.970;20.842;2023-11-19T12:02:07;15.00;;;8.85;;
43841;SDS011;29495;49.970;20.842;2023-11-19T12:04:34;14.50;;;8.52;;
43841;SDS011;29495;49.970;20.842;2023-11-19T12:07:17;13.27;;;8.32;;
43841;SDS011;29495;49.970;20.842;2023-11-19T12:09:48;11.95;;;7.80;;
43841;SDS011;29495;49.970;20.842;2023-11-19T12:12:26;17.23;;;9.30;;
43841;SDS011;29495;49.970;20.842;2023-11-19T12:15:03;13.05;;;8.20;;
43841;SDS011;29495;49.970;20.842;2023-11-19T12:17:49;12.50;;;7.15;;
43841;SDS011;29495;49.970;20.842;2023-11-19T12:20:16;13.70;;;7.90;;
43841;SDS011;29495;49.970;20.842;2023-11-19T12:22:47;20.25;;;9.63;;
43841;SDS011;29495;49.970;20.842;2023-11-19T12:25:16;26.85;;;13.27;;
43841;SDS011;29495;49.970;20.842;2023-11-19T12:27:46;24.73;;;13.18;;
43841;SDS011;29495;49.970;20.842;2023-11-19T12:30:23;28.52;;;14.68;;
43841;SDS011;29495;49.970;20.842;2023-11-19T12:32:51;30.88;;;15.63;;
43841;SDS011;29495;49.970;20.842;2023-11-19T12:35:18;21.27;;;12.32;;
43841;SDS011;29495;49.970;20.842;2023-11-19T12:40:15;13.80;;;9.23;;
43841;SDS011;29495;49.970;20.842;2023-11-19T12:42:49;15.75;;;9.77;;
43841;SDS011;29495;49.970;20.842;2023-11-19T12:45:16;13.27;;;8.75;;
43841;SDS011;29495;49.970;20.842;2023-11-19T12:47:44;15.48;;;9.45;;
43841;SDS011;29495;49.970;20.842;2023-11-19T12:50:13;14.25;;;8.80;;
43841;SDS011;29495;49.970;20.842;2023-11-19T12:52:39;12.48;;;8.80;;
43841;SDS011;29495;49.970;20.842;2023-11-19T12:55:06;13.70;;;9.35;;
43841;SDS011;29495;49.970;20.842;2023-11-19T12:57:55;15.20;;;8.68;;
43841;SDS011;29495;49.970;20.842;2023-11-19T13:00:23;15.27;;;10.05;;
43841;SDS011;29495;49.970;20.842;2023-11-19T13:02:51;17.95;;;9.93;;
43841;SDS011;29495;49.970;20.842;2023-11-19T13:05:22;17.00;;;9.60;;
